createdAt,value
2019-03-09T00:00:47.360Z,41.17
2019-03-09T00:03:19.353Z,42.99
2019-03-09T00:05:49.913Z,42.88
2019-03-09T00:08:20.693Z,43.00
2019-03-09T00:10:51.152Z,43.48
2019-03-09T00:13:21.659Z,43.15
2019-03-09T00:15:52.361Z,43.21
2019-03-09T00:18:22.708Z,44.06
2019-03-09T00:20:53.219Z,44.22
2019-03-09T00:23:45.731Z,44.21
2019-03-09T00:26:35.745Z,42.88
2019-03-09T00:29:14.493Z,42.44
2019-03-09T00:31:49.715Z,42.15
2019-03-09T00:34:20.190Z,42.95
2019-03-09T00:36:50.980Z,42.88
2019-03-09T00:39:21.360Z,43.33
2019-03-09T00:41:51.681Z,43.64
2019-03-09T00:44:22.395Z,43.90
2019-03-09T00:46:52.742Z,44.29
2019-03-09T00:49:23.169Z,45.38
2019-03-09T00:51:53.822Z,44.86
2019-03-09T00:54:24.478Z,45.82
2019-03-09T00:56:55.865Z,47.19
2019-03-09T00:59:26.196Z,46.93
2019-03-09T01:01:56.506Z,46.54
2019-03-09T01:04:27.162Z,46.57
2019-03-09T01:06:57.453Z,46.64
2019-03-09T01:09:27.927Z,46.75
2019-03-09T01:11:58.699Z,47.05
2019-03-09T01:14:29.223Z,46.82
2019-03-09T01:16:59.712Z,47.39
2019-03-09T01:19:30.503Z,48.35
2019-03-09T01:22:01.209Z,47.30
2019-03-09T01:24:31.754Z,48.25
2019-03-09T01:27:02.194Z,47.63
2019-03-09T01:29:32.588Z,47.79
2019-03-09T01:32:03.323Z,47.54
2019-03-09T01:34:33.760Z,48.06
2019-03-09T01:37:04.201Z,48.31
2019-03-09T01:39:34.938Z,48.46
2019-03-09T01:42:05.692Z,48.36
2019-03-09T01:44:36.061Z,46.80
2019-03-09T01:47:06.715Z,46.85
2019-03-09T01:49:37.359Z,46.95
2019-03-09T01:52:07.710Z,46.84
2019-03-09T01:54:38.159Z,47.08
2019-03-09T01:57:08.554Z,47.01
2019-03-09T01:59:38.922Z,46.89
2019-03-09T02:02:09.581Z,46.72
2019-03-09T02:04:39.878Z,46.68
2019-03-09T02:07:10.812Z,46.68
2019-03-09T02:09:41.499Z,47.37
2019-03-09T02:12:13.110Z,48.85
2019-03-09T02:14:43.552Z,48.58
2019-03-09T02:17:14.382Z,48.92
2019-03-09T02:19:44.732Z,48.90
2019-03-09T02:22:15.104Z,48.12
2019-03-09T02:24:45.903Z,47.33
2019-03-09T02:27:16.256Z,47.99
2019-03-09T02:29:47.061Z,47.19
2019-03-09T02:32:17.410Z,48.11
2019-03-09T02:34:48.222Z,47.73
2019-03-09T02:37:18.856Z,47.69
2019-03-09T02:39:54.404Z,47.59
2019-03-09T02:42:24.707Z,47.91
2019-03-09T02:44:55.462Z,47.49
2019-03-09T02:47:25.823Z,47.92
2019-03-09T02:49:56.136Z,47.46
2019-03-09T02:52:26.695Z,48.29
2019-03-09T02:54:57.234Z,48.09
2019-03-09T02:57:27.526Z,47.59
2019-03-09T02:59:58.213Z,47.80
2019-03-09T03:02:33.701Z,48.31
2019-03-09T03:05:04.054Z,48.31
2019-03-09T03:07:34.785Z,47.32
2019-03-09T03:10:06.356Z,48.33
2019-03-09T03:12:36.735Z,47.66
2019-03-09T03:15:07.773Z,47.41
2019-03-09T03:17:38.451Z,47.22
2019-03-09T03:20:09.432Z,47.69
2019-03-09T03:22:39.761Z,47.92
2019-03-09T03:25:10.507Z,47.67
2019-03-09T03:27:40.823Z,47.85
2019-03-09T03:30:11.296Z,48.05
2019-03-09T03:32:42.028Z,48.12
2019-03-09T03:35:12.646Z,48.55
2019-03-09T03:37:43.408Z,49.04
2019-03-09T03:40:14.103Z,50.46
2019-03-09T03:42:44.595Z,51.12
2019-03-09T03:45:15.748Z,51.13
2019-03-09T03:47:46.031Z,51.68
2019-03-09T03:50:16.380Z,50.95
2019-03-09T03:52:47.086Z,51.04
2019-03-09T03:55:17.439Z,50.73
2019-03-09T03:57:47.723Z,50.53
2019-03-09T04:00:18.353Z,50.58
2019-03-09T04:02:49.001Z,50.93
2019-03-09T04:05:19.583Z,51.24
2019-03-09T04:07:49.877Z,51.31
2019-03-09T04:10:20.701Z,51.43
2019-03-09T04:12:52.035Z,50.43
2019-03-09T04:15:22.605Z,51.18
2019-03-09T04:17:52.902Z,51.43
2019-03-09T04:20:23.689Z,51.56
2019-03-09T04:22:54.065Z,51.91
2019-03-09T04:25:24.392Z,52.27
2019-03-09T04:27:54.773Z,50.84
2019-03-09T04:30:25.238Z,51.00
2019-03-09T04:32:55.511Z,50.81
2019-03-09T04:35:26.040Z,51.05
2019-03-09T04:37:56.328Z,53.12
2019-03-09T04:40:26.895Z,52.19
2019-03-09T04:42:58.246Z,51.89
2019-03-09T04:45:28.708Z,52.18
2019-03-09T04:47:59.356Z,51.83
2019-03-09T04:50:29.990Z,51.17
2019-03-09T04:53:00.374Z,51.37
2019-03-09T04:55:31.099Z,51.30
2019-03-09T04:58:01.484Z,52.39
2019-03-09T05:00:31.807Z,51.05
2019-03-09T05:03:02.239Z,51.55
2019-03-09T05:05:32.903Z,51.68
2019-03-09T05:08:30.335Z,51.38
2019-03-09T05:11:14.204Z,52.16
2019-03-09T05:14:07.004Z,52.76
2019-03-09T05:16:37.707Z,52.49
2019-03-09T05:19:08.398Z,53.78
2019-03-09T05:21:38.739Z,53.85
2019-03-09T05:24:09.087Z,53.51
2019-03-09T05:26:39.431Z,53.23
2019-03-09T05:29:09.750Z,53.17
2019-03-09T05:31:40.064Z,53.45
2019-03-09T05:34:10.795Z,54.25
2019-03-09T05:36:41.111Z,54.63
2019-03-09T05:39:11.433Z,55.16
2019-03-09T05:41:42.031Z,55.44
2019-03-09T05:44:12.519Z,55.77
2019-03-09T05:46:42.884Z,55.20
2019-03-09T05:49:13.213Z,53.87
2019-03-09T05:51:43.698Z,53.50
2019-03-09T05:54:14.318Z,52.91
2019-03-09T05:56:44.799Z,52.55
2019-03-09T05:59:15.157Z,51.24
2019-03-09T06:01:46.306Z,50.47
2019-03-09T06:04:16.915Z,52.10
2019-03-09T06:06:47.326Z,50.31
2019-03-09T06:09:17.897Z,50.58
2019-03-09T06:11:49.512Z,50.86
2019-03-09T06:14:19.863Z,50.78
2019-03-09T06:16:50.216Z,50.83
2019-03-09T06:19:20.543Z,51.09
2019-03-09T06:21:51.254Z,51.07
2019-03-09T06:24:21.725Z,51.14
2019-03-09T06:26:52.215Z,50.91
2019-03-09T06:29:22.838Z,50.70
2019-03-09T06:32:29.992Z,50.17
2019-03-09T06:35:00.454Z,50.48
2019-03-09T06:37:31.078Z,50.38
2019-03-09T06:40:01.506Z,49.72
2019-03-09T06:42:56.992Z,49.48
2019-03-09T06:45:27.440Z,49.20
2019-03-09T06:47:57.892Z,49.00
2019-03-09T06:50:28.404Z,48.12
2019-03-09T06:52:59.008Z,48.85
2019-03-09T06:55:29.308Z,48.69
2019-03-09T06:58:00.052Z,48.67
2019-03-09T07:00:41.071Z,48.40
2019-03-09T07:03:12.142Z,48.67
2019-03-09T07:05:42.659Z,49.24
2019-03-09T07:08:13.431Z,49.56
2019-03-09T07:10:43.752Z,49.70
2019-03-09T07:13:14.303Z,49.74
2019-03-09T07:15:45.885Z,48.84
2019-03-09T07:18:29.090Z,49.27
2019-03-09T07:21:00.690Z,49.10
2019-03-09T07:23:31.399Z,48.82
2019-03-09T07:26:01.971Z,47.91
2019-03-09T07:28:32.254Z,47.81
2019-03-09T07:31:02.832Z,47.02
2019-03-09T07:33:34.543Z,46.96
2019-03-09T07:36:05.010Z,46.49
2019-03-09T07:38:35.628Z,45.84
2019-03-09T07:41:06.449Z,45.27
2019-03-09T07:43:36.884Z,44.57
2019-03-09T07:46:07.512Z,43.58
2019-03-09T07:48:38.087Z,43.16
2019-03-09T07:51:08.379Z,42.43
2019-03-09T07:53:38.986Z,41.65
2019-03-09T07:56:09.291Z,41.56
2019-03-09T07:58:40.084Z,41.16
2019-03-09T08:01:10.532Z,39.43
2019-03-09T08:03:40.970Z,39.17
2019-03-09T08:06:11.377Z,34.92
2019-03-09T08:08:41.961Z,35.27
2019-03-09T08:11:12.238Z,34.22
2019-03-09T08:13:42.619Z,34.49
2019-03-09T08:16:13.042Z,32.92
2019-03-09T08:18:45.350Z,32.53
2019-03-09T08:21:15.877Z,32.38
2019-03-09T08:23:46.475Z,32.22
2019-03-09T08:26:16.962Z,32.41
2019-03-09T08:28:47.896Z,32.54
2019-03-09T08:31:18.309Z,32.17
2019-03-09T08:33:48.651Z,31.75
2019-03-09T08:36:19.285Z,32.06
2019-03-09T08:38:49.578Z,31.93
2019-03-09T08:41:19.837Z,31.45
2019-03-09T08:43:50.319Z,31.98
2019-03-09T08:46:20.789Z,31.84
2019-03-09T08:48:51.134Z,31.44
2019-03-09T08:51:21.687Z,30.65
2019-03-09T08:53:52.354Z,29.27
2019-03-09T08:56:22.779Z,29.27
2019-03-09T08:58:53.098Z,29.51
2019-03-09T09:01:23.411Z,29.59
2019-03-09T09:03:54.086Z,29.63
2019-03-09T09:06:24.669Z,29.63
2019-03-09T09:08:54.955Z,29.62
2019-03-09T09:11:25.341Z,30.08
2019-03-09T09:13:55.880Z,29.87
2019-03-09T09:16:26.156Z,30.34
2019-03-09T09:18:56.951Z,30.34
2019-03-09T09:21:27.611Z,29.81
2019-03-09T09:23:57.949Z,29.80
2019-03-09T09:26:28.703Z,29.08
2019-03-09T09:28:59.299Z,29.18
2019-03-09T09:31:29.667Z,29.18
2019-03-09T09:34:00.013Z,29.74
2019-03-09T09:36:30.513Z,29.74
2019-03-09T09:39:00.845Z,29.57
2019-03-09T09:41:32.733Z,29.53
2019-03-09T09:44:04.852Z,29.36
2019-03-09T09:46:35.338Z,28.95
2019-03-09T09:49:05.649Z,28.91
2019-03-09T09:51:36.548Z,28.56
2019-03-09T09:54:07.244Z,28.50
2019-03-09T09:56:37.650Z,28.86
2019-03-09T09:59:08.294Z,28.23
2019-03-09T10:01:38.634Z,27.88
2019-03-09T10:04:09.304Z,26.99
2019-03-09T10:06:39.844Z,27.49
2019-03-09T10:09:10.572Z,27.17
2019-03-09T10:11:41.150Z,27.89
2019-03-09T10:14:12.062Z,27.13
2019-03-09T10:16:42.433Z,26.37
2019-03-09T10:19:13.153Z,26.41
2019-03-09T10:21:43.933Z,26.02
2019-03-09T10:24:14.208Z,25.73
2019-03-09T10:26:44.691Z,25.97
2019-03-09T10:29:15.476Z,26.48
2019-03-09T10:31:45.897Z,25.49
2019-03-09T10:34:16.637Z,25.67
2019-03-09T10:36:46.950Z,24.92
2019-03-09T10:39:17.320Z,25.23
2019-03-09T10:41:47.758Z,25.86
2019-03-09T10:44:18.028Z,25.53
2019-03-09T10:46:48.400Z,25.57
2019-03-09T10:49:20.231Z,25.22
2019-03-09T10:51:50.619Z,24.87
2019-03-09T10:54:21.098Z,24.83
2019-03-09T10:56:51.627Z,24.99
2019-03-09T10:59:22.970Z,24.89
2019-03-09T11:01:53.299Z,25.24
2019-03-09T11:04:27.692Z,24.87
2019-03-09T11:06:55.839Z,24.95
2019-03-09T11:09:26.205Z,25.04
2019-03-09T11:11:56.526Z,25.12
2019-03-09T11:14:26.842Z,25.29
2019-03-09T11:16:57.629Z,25.62
2019-03-09T11:19:27.919Z,24.14
2019-03-09T11:21:58.216Z,24.01
2019-03-09T11:24:29.088Z,24.16
2019-03-09T11:26:59.677Z,24.43
2019-03-09T11:29:29.950Z,23.84
2019-03-09T11:32:00.435Z,24.21
2019-03-09T11:34:31.118Z,23.43
2019-03-09T11:37:01.386Z,22.27
2019-03-09T11:39:31.852Z,22.34
2019-03-09T11:42:02.585Z,22.36
2019-03-09T11:44:32.867Z,22.53
2019-03-09T11:47:03.310Z,21.62
2019-03-09T11:49:33.976Z,21.15
2019-03-09T11:52:04.266Z,20.92
2019-03-09T11:54:34.650Z,20.22
2019-03-09T11:57:05.358Z,20.88
2019-03-09T11:59:36.691Z,20.19
2019-03-09T12:02:07.084Z,19.41
2019-03-09T12:04:46.385Z,19.69
2019-03-09T12:07:09.931Z,19.60
2019-03-09T12:09:40.345Z,20.29
2019-03-09T12:12:10.642Z,20.65
2019-03-09T12:14:40.983Z,21.30
2019-03-09T12:17:12.983Z,22.31
2019-03-09T12:19:43.345Z,22.23
2019-03-09T12:22:13.643Z,21.49
2019-03-09T12:24:45.707Z,21.72
2019-03-09T12:27:16.228Z,21.04
2019-03-09T12:29:46.672Z,21.64
2019-03-09T12:32:17.300Z,21.72
2019-03-09T12:34:47.698Z,21.62
2019-03-09T12:37:17.973Z,22.04
2019-03-09T12:39:48.355Z,21.91
2019-03-09T12:42:18.665Z,22.71
2019-03-09T12:44:49.325Z,22.26
2019-03-09T12:47:19.696Z,22.23
2019-03-09T12:49:50.066Z,22.82
2019-03-09T12:52:20.705Z,23.50
2019-03-09T12:54:51.427Z,23.46
2019-03-09T12:57:21.748Z,23.71
2019-03-09T12:59:52.610Z,23.57
2019-03-09T13:02:23.302Z,24.05
2019-03-09T13:04:53.572Z,23.99
2019-03-09T13:07:25.048Z,24.15
2019-03-09T13:09:55.445Z,26.13
2019-03-09T13:12:25.763Z,24.22
2019-03-09T13:14:56.507Z,24.49
2019-03-09T13:17:26.830Z,24.57
2019-03-09T13:19:57.370Z,24.34
2019-03-09T13:22:28.103Z,23.64
2019-03-09T13:24:58.387Z,23.07
2019-03-09T13:27:28.974Z,23.68
2019-03-09T13:29:59.685Z,23.28
2019-03-09T13:32:30.111Z,23.22
2019-03-09T13:35:00.400Z,22.74
2019-03-09T13:37:31.241Z,22.61
2019-03-09T13:40:01.525Z,23.02
2019-03-09T13:42:32.012Z,24.22
2019-03-09T13:45:02.543Z,23.69
2019-03-09T13:47:33.223Z,23.07
2019-03-09T13:50:03.724Z,22.75
2019-03-09T13:52:34.164Z,22.55
2019-03-09T13:55:04.578Z,21.45
2019-03-09T13:57:35.109Z,21.15
2019-03-09T14:00:08.229Z,20.26
2019-03-09T14:02:38.532Z,19.73
2019-03-09T14:05:09.526Z,19.81
2019-03-09T14:07:39.849Z,19.08
2019-03-09T14:10:11.343Z,19.74
2019-03-09T14:12:43.205Z,18.78
2019-03-09T14:15:14.986Z,19.03
2019-03-09T14:17:45.507Z,18.71
2019-03-09T14:20:17.047Z,18.88
2019-03-09T14:22:47.438Z,19.10
2019-03-09T14:25:18.305Z,18.62
2019-03-09T14:27:48.797Z,19.12
2019-03-09T14:30:19.121Z,19.54
2019-03-09T14:32:49.829Z,19.22
2019-03-09T14:35:20.433Z,19.51
2019-03-09T14:37:50.748Z,19.34
2019-03-09T14:40:21.483Z,19.52
2019-03-09T14:42:52.167Z,19.81
2019-03-09T14:45:22.466Z,19.40
2019-03-09T14:47:53.141Z,19.62
2019-03-09T14:50:23.421Z,19.79
2019-03-09T14:52:54.084Z,20.25
2019-03-09T14:55:24.780Z,21.03
2019-03-09T14:57:55.103Z,20.44
2019-03-09T15:00:25.728Z,20.19
2019-03-09T15:02:56.294Z,19.75
2019-03-09T15:05:26.619Z,19.53
2019-03-09T15:07:56.982Z,19.68
2019-03-09T15:10:27.856Z,19.96
2019-03-09T15:12:58.136Z,19.82
2019-03-09T15:15:28.480Z,19.76
2019-03-09T15:17:59.246Z,19.77
2019-03-09T15:20:29.649Z,20.12
2019-03-09T15:23:00.299Z,19.89
2019-03-09T15:25:31.551Z,20.06
2019-03-09T15:28:02.185Z,20.29
2019-03-09T15:30:33.019Z,20.95
2019-03-09T15:33:03.328Z,21.09
2019-03-09T15:35:33.657Z,21.14
2019-03-09T15:38:04.106Z,21.29
2019-03-09T15:40:34.656Z,20.84
2019-03-09T15:43:04.946Z,21.09
2019-03-09T15:45:35.833Z,21.01
2019-03-09T15:48:06.476Z,20.90
2019-03-09T15:50:36.890Z,20.68
2019-03-09T15:53:07.577Z,20.67
2019-03-09T15:55:38.252Z,20.80
2019-03-09T15:58:08.727Z,21.09
2019-03-09T16:00:39.525Z,21.07
2019-03-09T16:03:09.982Z,21.21
2019-03-09T16:05:40.366Z,20.91
2019-03-09T16:08:10.737Z,21.01
2019-03-09T16:10:41.398Z,21.85
2019-03-09T16:13:11.742Z,22.12
2019-03-09T16:15:42.034Z,22.38
2019-03-09T16:18:12.720Z,22.29
2019-03-09T16:20:43.041Z,23.04
2019-03-09T16:23:13.353Z,23.21
2019-03-09T16:25:43.942Z,23.44
2019-03-09T16:28:14.593Z,23.42
2019-03-09T16:30:45.054Z,23.55
2019-03-09T16:33:15.391Z,24.06
2019-03-09T16:35:45.687Z,24.07
2019-03-09T16:38:17.270Z,24.33
2019-03-09T16:40:47.556Z,24.19
2019-03-09T16:43:18.064Z,24.59
2019-03-09T16:45:48.739Z,24.42
2019-03-09T16:48:19.186Z,24.83
2019-03-09T16:50:49.458Z,24.53
2019-03-09T16:53:20.144Z,25.07
2019-03-09T16:55:50.887Z,24.99
2019-03-09T16:58:21.328Z,24.81
2019-03-09T17:00:51.656Z,24.81
2019-03-09T17:03:22.037Z,25.38
2019-03-09T17:05:52.430Z,25.74
2019-03-09T17:08:22.904Z,25.52
2019-03-09T17:10:53.186Z,25.89
2019-03-09T17:13:23.884Z,25.93
2019-03-09T17:15:54.587Z,26.24
2019-03-09T17:18:24.932Z,26.24
2019-03-09T17:20:56.788Z,27.08
2019-03-09T17:23:28.575Z,27.08
2019-03-09T17:25:59.008Z,26.95
2019-03-09T17:28:29.443Z,26.76
2019-03-09T17:30:59.911Z,27.13
2019-03-09T17:33:30.565Z,27.34
2019-03-09T17:36:01.227Z,27.92
2019-03-09T17:38:32.607Z,34.42
2019-03-09T17:41:03.219Z,37.61
2019-03-09T17:43:33.606Z,39.38
2019-03-09T17:46:03.951Z,42.26
2019-03-09T17:48:34.309Z,43.97
2019-03-09T17:51:04.748Z,45.41
2019-03-09T17:53:35.120Z,46.69
2019-03-09T17:56:05.523Z,47.40
2019-03-09T17:58:36.269Z,49.01
2019-03-09T18:01:06.701Z,49.19
2019-03-09T18:03:37.315Z,49.55
2019-03-09T18:06:07.662Z,49.55
2019-03-09T18:08:38.086Z,49.82
2019-03-09T18:11:09.637Z,50.78
2019-03-09T18:13:39.954Z,50.49
2019-03-09T18:16:10.312Z,50.94
2019-03-09T18:18:40.921Z,50.37
2019-03-09T18:21:11.246Z,50.46
2019-03-09T18:23:41.926Z,51.26
2019-03-09T18:26:12.572Z,50.38
2019-03-09T18:28:43.137Z,51.12
2019-03-09T18:31:13.639Z,51.20
2019-03-09T18:33:44.431Z,51.51
2019-03-09T18:36:15.713Z,52.24
2019-03-09T18:38:46.346Z,52.35
2019-03-09T18:41:16.805Z,51.85
2019-03-09T18:43:47.126Z,50.23
2019-03-09T18:46:17.982Z,50.52
2019-03-09T18:48:48.299Z,50.43
2019-03-09T18:51:18.661Z,49.98
2019-03-09T18:53:49.407Z,50.89
2019-03-09T18:56:19.991Z,51.05
2019-03-09T18:58:50.340Z,50.33
2019-03-09T19:01:21.070Z,49.74
2019-03-09T19:03:51.744Z,49.89
2019-03-09T19:06:22.088Z,51.71
2019-03-09T19:08:52.600Z,52.67
2019-03-09T19:11:22.908Z,52.98
2019-03-09T19:13:53.391Z,53.20
2019-03-09T19:16:24.069Z,53.54
2019-03-09T19:18:54.429Z,53.05
2019-03-09T19:21:25.146Z,51.99
2019-03-09T19:23:55.911Z,51.21
2019-03-09T19:26:26.413Z,51.06
2019-03-09T19:28:56.871Z,50.78
2019-03-09T19:31:27.500Z,51.09
2019-03-09T19:33:57.934Z,51.33
2019-03-09T19:36:28.536Z,51.37
2019-03-09T19:38:59.063Z,52.14
2019-03-09T19:41:29.501Z,53.16
2019-03-09T19:43:59.891Z,52.75
2019-03-09T19:46:30.211Z,51.93
2019-03-09T19:49:00.556Z,52.25
2019-03-09T19:51:31.188Z,51.63
2019-03-09T19:54:01.500Z,51.16
2019-03-09T19:56:32.924Z,51.32
2019-03-09T19:59:03.550Z,50.55
2019-03-09T20:01:33.870Z,50.76
2019-03-09T20:04:05.278Z,51.25
2019-03-09T20:06:35.913Z,52.12
2019-03-09T20:09:07.976Z,51.95
2019-03-09T20:11:38.735Z,52.09
2019-03-09T20:14:09.432Z,52.57
2019-03-09T20:16:40.172Z,52.25
2019-03-09T20:19:10.525Z,53.01
2019-03-09T20:21:41.187Z,51.78
2019-03-09T20:24:11.869Z,50.81
2019-03-09T20:26:42.152Z,51.33
2019-03-09T20:29:12.923Z,50.44
2019-03-09T20:31:43.606Z,50.13
2019-03-09T20:34:13.945Z,50.05
2019-03-09T20:36:44.326Z,49.39
2019-03-09T20:39:15.142Z,49.28
2019-03-09T20:41:45.421Z,48.88
2019-03-09T20:44:15.825Z,49.45
2019-03-09T20:46:46.108Z,48.97
2019-03-09T20:49:16.548Z,48.57
2019-03-09T20:51:47.017Z,47.60
2019-03-09T20:54:17.366Z,46.27
2019-03-09T20:56:47.868Z,45.87
2019-03-09T20:59:18.576Z,46.44
2019-03-09T21:01:48.885Z,45.53
2019-03-09T21:04:19.226Z,44.67
2019-03-09T21:06:49.730Z,44.20
2019-03-09T21:09:20.306Z,44.33
2019-03-09T21:11:50.608Z,43.71
2019-03-09T21:14:21.006Z,43.10
2019-03-09T21:16:51.283Z,42.97
2019-03-09T21:19:21.688Z,42.70
2019-03-09T21:21:52.027Z,42.07
2019-03-09T21:24:23.271Z,42.23
2019-03-09T21:26:53.934Z,41.91
2019-03-09T21:29:24.467Z,41.99
2019-03-09T21:31:54.752Z,41.71
2019-03-09T21:34:25.571Z,41.66
2019-03-09T21:36:56.249Z,41.40
2019-03-09T21:39:26.588Z,41.43
2019-03-09T21:41:57.327Z,42.02
2019-03-09T21:44:27.999Z,41.74
2019-03-09T21:46:59.325Z,41.59
2019-03-09T21:49:29.835Z,41.28
2019-03-09T21:52:00.233Z,41.18
2019-03-09T21:54:30.943Z,41.16
2019-03-09T21:57:01.624Z,40.76
2019-03-09T21:59:32.037Z,41.14
2019-03-09T22:02:02.680Z,40.96
2019-03-09T22:04:33.455Z,41.08
2019-03-09T22:07:03.732Z,40.93
2019-03-09T22:09:34.267Z,41.05
2019-03-09T22:12:04.778Z,41.16
2019-03-09T22:14:35.075Z,41.44
2019-03-09T22:17:05.378Z,41.38
2019-03-09T22:19:36.161Z,41.65
2019-03-09T22:22:06.835Z,41.67
2019-03-09T22:24:37.556Z,41.52
2019-03-09T22:27:07.834Z,41.82
2019-03-09T22:29:38.378Z,41.76
2019-03-09T22:32:09.054Z,41.83
2019-03-09T22:34:39.386Z,41.65
2019-03-09T22:37:09.804Z,41.79
2019-03-09T22:39:40.726Z,41.30
2019-03-09T22:42:11.047Z,40.87
2019-03-09T22:44:41.412Z,41.41
2019-03-09T22:47:13.044Z,41.87
2019-03-09T22:49:43.573Z,42.51
2019-03-09T22:52:14.109Z,42.79
2019-03-09T22:54:44.430Z,43.99
2019-03-09T22:57:14.733Z,44.43
2019-03-09T22:59:45.732Z,44.86
2019-03-09T23:02:16.013Z,45.02
2019-03-09T23:04:46.337Z,45.82
2019-03-09T23:07:16.882Z,45.82
2019-03-09T23:09:47.409Z,46.03
2019-03-09T23:12:17.718Z,46.09
2019-03-09T23:14:48.296Z,46.42
2019-03-09T23:17:18.652Z,46.10
2019-03-09T23:19:48.980Z,46.24
2019-03-09T23:22:19.747Z,46.66
2019-03-09T23:24:50.077Z,46.43
2019-03-09T23:27:20.598Z,46.67
2019-03-09T23:29:51.186Z,46.44
2019-03-09T23:32:21.471Z,46.63
2019-03-09T23:34:52.140Z,46.95
2019-03-09T23:37:22.917Z,46.95
2019-03-09T23:39:53.485Z,47.04
2019-03-09T23:42:24.095Z,46.32
2019-03-09T23:44:54.598Z,45.98
2019-03-09T23:47:24.875Z,45.46
2019-03-09T23:49:55.412Z,44.98
2019-03-09T23:52:26.108Z,44.70
2019-03-09T23:54:56.537Z,44.70
2019-03-09T23:57:27.155Z,44.48
2019-03-09T23:59:57.539Z,44.55
